createdAt,value
2018-01-03T00:19:33.974Z,10.5
2018-01-03T00:34:33.960Z,10.6
2018-01-03T00:49:33.930Z,3
2018-01-03T01:09:33.869Z,7.6
2018-01-03T01:24:34.080Z,8.6
2018-01-03T01:39:34.033Z,14.3
2018-01-03T01:54:34.035Z,13.8
2018-01-03T02:14:33.918Z,6.7
2018-01-03T02:29:34.058Z,6.2
2018-01-03T02:44:34.109Z,5.2
2018-01-03T03:04:34.041Z,4.3
2018-01-03T03:19:34.046Z,3.8
2018-01-03T03:34:34.131Z,3.3
2018-01-03T03:49:34.234Z,2
2018-01-03T04:09:34.070Z,2.1
2018-01-03T04:24:34.135Z,3.5
2018-01-03T04:39:34.105Z,2.4
2018-01-03T04:59:34.046Z,4.2
2018-01-03T05:14:34.139Z,2.9
2018-01-03T05:29:52.402Z,8
2018-01-03T05:44:53.546Z,5.7
2018-01-03T06:04:34.112Z,4.1
2018-01-03T06:19:34.367Z,3.7
2018-01-03T06:34:34.304Z,3
2018-01-03T06:54:34.372Z,4.8
2018-01-03T07:09:34.354Z,4.9
2018-01-03T07:24:34.309Z,10.6
2018-01-03T07:39:34.292Z,7.9
2018-01-03T07:59:34.180Z,10.9
2018-01-03T08:14:37.204Z,6.9
2018-01-03T08:29:34.753Z,11.5
2018-01-03T08:49:34.801Z,17.2
2018-01-03T09:04:34.558Z,16.4
2018-01-03T09:19:34.612Z,8.7
2018-01-03T09:34:34.706Z,8.5
2018-01-03T09:54:34.709Z,5.4
2018-01-03T10:09:34.896Z,6.6
2018-01-03T10:24:34.802Z,5.6
2018-01-03T10:44:35.915Z,7.5
2018-01-03T10:59:35.894Z,4.9
2018-01-03T11:14:34.728Z,2.9
2018-01-03T11:29:35.133Z,5.7
2018-01-03T11:49:34.696Z,8.9
2018-01-03T12:04:36.224Z,7.2
2018-01-03T12:19:34.774Z,3
2018-01-03T12:39:34.741Z,1.5
2018-01-03T12:54:37.026Z,1.8
2018-01-03T13:09:35.367Z,1.2
2018-01-03T13:24:34.806Z,1
2018-01-03T13:44:44.731Z,1
2018-01-03T13:59:34.761Z,1.4
2018-01-03T14:14:34.774Z,1.2
2018-01-03T14:34:34.937Z,0.7
2018-01-03T14:49:34.923Z,0.5
2018-01-03T15:04:35.133Z,0.7
2018-01-03T15:19:34.900Z,0.4
2018-01-03T15:39:34.929Z,2.4
2018-01-03T15:54:34.956Z,1.3
2018-01-03T16:09:34.803Z,2.2
2018-01-03T16:29:34.971Z,1.4
2018-01-03T16:44:34.924Z,1.2
2018-01-03T16:59:34.922Z,1.2
2018-01-03T17:14:34.821Z,2
2018-01-03T17:34:34.930Z,1.4
2018-01-03T17:49:35.340Z,3.6
2018-01-03T18:04:37.459Z,2.8
2018-01-03T18:24:35.443Z,1.3
2018-01-03T18:39:34.890Z,4.6
2018-01-03T18:54:37.589Z,1.3
2018-01-03T19:14:34.933Z,1.8
2018-01-03T19:29:34.956Z,1.6
2018-01-03T19:44:35.003Z,2.4
2018-01-03T19:59:36.125Z,2
2018-01-03T20:19:35.067Z,2.5
2018-01-03T20:49:45.625Z,1.9
2018-01-03T21:09:35.166Z,2
2018-01-03T21:24:38.386Z,2.4
2018-01-03T21:39:35.183Z,1.7
2018-01-03T21:54:35.942Z,1.6
2018-01-03T22:14:36.145Z,3.1
2018-01-03T22:29:34.990Z,1.6
2018-01-03T22:44:35.034Z,3
2018-01-03T23:04:35.294Z,5.4
2018-01-03T23:19:35.006Z,1.7
2018-01-03T23:34:35.030Z,1.5
2018-01-03T23:49:35.161Z,2.7
